sensor_id;sensor_type;location;lat;lon;timestamp;pressure;altitude;pressure_sealevel;temperature;humidity
12349;BME280;5974;42.710;27.258;2023-04-25T00:01:55;99589.78;;;11.46;100.00
12349;BME280;5974;42.710;27.258;2023-04-25T00:04:22;99563.81;;;11.25;100.00
12349;BME280;5974;42.710;27.258;2023-04-25T00:06:48;99589.53;;;11.50;100.00
12349;BME280;5974;42.710;27.258;2023-04-25T00:09:17;99579.41;;;11.44;100.00
12349;BME280;5974;42.710;27.258;2023-04-25T00:11:44;99578.44;;;11.45;100.00
12349;BME280;5974;42.710;27.258;2023-04-25T00:14:11;99576.47;;;11.50;100.00
12349;BME280;5974;42.710;27.258;2023-04-25T00:16:38;99566.34;;;11.27;100.00
12349;BME280;5974;42.710;27.258;2023-04-25T00:19:06;99573.19;;;11.29;100.00
12349;BME280;5974;42.710;27.258;2023-04-25T00:21:33;99570.44;;;11.48;100.00
12349;BME280;5974;42.710;27.258;2023-04-25T00:24:00;99566.63;;;11.38;100.00
12349;BME280;5974;42.710;27.258;2023-04-25T00:26:29;99565.00;;;11.35;100.00
12349;BME280;5974;42.710;27.258;2023-04-25T00:28:56;99554.22;;;11.41;100.00
12349;BME280;5974;42.710;27.258;2023-04-25T00:31:23;99545.22;;;11.47;100.00
12349;BME280;5974;42.710;27.258;2023-04-25T00:33:50;99548.16;;;11.57;100.00
12349;BME280;5974;42.710;27.258;2023-04-25T00:36:17;99548.66;;;11.32;100.00
12349;BME280;5974;42.710;27.258;2023-04-25T00:38:43;99551.28;;;11.15;100.00
12349;BME280;5974;42.710;27.258;2023-04-25T00:41:11;99545.25;;;11.63;100.00
12349;BME280;5974;42.710;27.258;2023-04-25T00:43:40;99537.84;;;11.71;100.00
12349;BME280;5974;42.710;27.258;2023-04-25T00:46:07;99538.19;;;11.80;100.00
12349;BME280;5974;42.710;27.258;2023-04-25T00:48:34;99539.03;;;11.81;100.00
12349;BME280;5974;42.710;27.258;2023-04-25T00:51:00;99531.91;;;11.83;100.00
12349;BME280;5974;42.710;27.258;2023-04-25T00:53:28;99531.91;;;11.83;100.00
12349;BME280;5974;42.710;27.258;2023-04-25T00:55:57;99524.75;;;11.86;100.00
12349;BME280;5974;42.710;27.258;2023-04-25T00:58:25;99519.91;;;11.79;100.00
12349;BME280;5974;42.710;27.258;2023-04-25T01:00:53;99512.06;;;11.79;100.00
12349;BME280;5974;42.710;27.258;2023-04-25T01:03:20;99483.75;;;11.70;100.00
12349;BME280;5974;42.710;27.258;2023-04-25T01:05:47;99514.34;;;11.85;100.00
12349;BME280;5974;42.710;27.258;2023-04-25T01:08:14;99512.34;;;11.57;100.00
12349;BME280;5974;42.710;27.258;2023-04-25T01:10:41;99506.75;;;11.48;100.00
12349;BME280;5974;42.710;27.258;2023-04-25T01:13:08;99503.72;;;11.39;100.00
12349;BME280;5974;42.710;27.258;2023-04-25T01:15:35;99496.28;;;11.16;100.00
12349;BME280;5974;42.710;27.258;2023-04-25T01:18:05;99509.22;;;11.02;100.00
12349;BME280;5974;42.710;27.258;2023-04-25T01:20:32;99509.84;;;11.07;100.00
12349;BME280;5974;42.710;27.258;2023-04-25T01:23:01;99512.88;;;11.15;100.00
12349;BME280;5974;42.710;27.258;2023-04-25T01:25:29;99514.31;;;11.21;100.00
12349;BME280;5974;42.710;27.258;2023-04-25T01:27:56;99516.19;;;11.19;100.00
12349;BME280;5974;42.710;27.258;2023-04-25T01:30:25;99510.91;;;10.86;100.00
12349;BME280;5974;42.710;27.258;2023-04-25T01:32:54;99500.13;;;10.92;100.00
12349;BME280;5974;42.710;27.258;2023-04-25T01:35:22;99499.63;;;10.85;100.00
12349;BME280;5974;42.710;27.258;2023-04-25T01:37:51;99503.50;;;10.78;100.00
12349;BME280;5974;42.710;27.258;2023-04-25T01:40:20;99494.34;;;10.70;100.00
12349;BME280;5974;42.710;27.258;2023-04-25T01:42:48;99481.22;;;10.54;100.00
12349;BME280;5974;42.710;27.258;2023-04-25T01:45:15;99487.59;;;10.49;100.00
12349;BME280;5974;42.710;27.258;2023-04-25T01:47:42;99483.13;;;10.33;100.00
12349;BME280;5974;42.710;27.258;2023-04-25T01:50:12;99478.34;;;10.24;100.00
12349;BME280;5974;42.710;27.258;2023-04-25T01:52:39;99474.97;;;10.22;100.00
12349;BME280;5974;42.710;27.258;2023-04-25T01:55:07;99477.88;;;10.16;100.00
12349;BME280;5974;42.710;27.258;2023-04-25T01:57:35;99469.47;;;10.10;100.00
12349;BME280;5974;42.710;27.258;2023-04-25T02:00:05;99469.44;;;9.93;100.00
12349;BME280;5974;42.710;27.258;2023-04-25T02:02:32;99467.03;;;9.71;100.00
12349;BME280;5974;42.710;27.258;2023-04-25T02:04:59;99467.63;;;9.76;100.00
12349;BME280;5974;42.710;27.258;2023-04-25T02:07:26;99458.44;;;9.50;100.00
12349;BME280;5974;42.710;27.258;2023-04-25T02:09:53;99460.53;;;9.42;100.00
12349;BME280;5974;42.710;27.258;2023-04-25T02:12:20;99456.47;;;9.37;100.00
12349;BME280;5974;42.710;27.258;2023-04-25T02:14:48;99462.16;;;8.89;100.00
12349;BME280;5974;42.710;27.258;2023-04-25T02:17:15;99449.63;;;9.15;100.00
12349;BME280;5974;42.710;27.258;2023-04-25T02:19:43;99460.34;;;9.28;100.00
12349;BME280;5974;42.710;27.258;2023-04-25T02:22:10;99455.69;;;8.97;100.00
12349;BME280;5974;42.710;27.258;2023-04-25T02:24:37;99456.13;;;9.25;100.00
12349;BME280;5974;42.710;27.258;2023-04-25T02:27:03;99456.75;;;9.31;100.00
12349;BME280;5974;42.710;27.258;2023-04-25T02:29:31;99456.53;;;9.16;100.00
12349;BME280;5974;42.710;27.258;2023-04-25T02:31:59;99451.38;;;9.34;100.00
12349;BME280;5974;42.710;27.258;2023-04-25T02:34:26;99454.13;;;9.31;100.00
12349;BME280;5974;42.710;27.258;2023-04-25T02:36:53;99448.84;;;9.32;100.00
12349;BME280;5974;42.710;27.258;2023-04-25T02:39:20;99446.50;;;9.45;100.00
12349;BME280;5974;42.710;27.258;2023-04-25T02:41:47;99444.34;;;9.36;100.00
12349;BME280;5974;42.710;27.258;2023-04-25T02:44:14;99439.63;;;9.25;100.00
12349;BME280;5974;42.710;27.258;2023-04-25T02:46:41;99442.41;;;9.02;100.00
12349;BME280;5974;42.710;27.258;2023-04-25T02:49:09;99433.75;;;9.20;100.00
12349;BME280;5974;42.710;27.258;2023-04-25T02:51:36;99441.66;;;9.37;100.00
12349;BME280;5974;42.710;27.258;2023-04-25T02:54:03;99443.91;;;9.45;100.00
12349;BME280;5974;42.710;27.258;2023-04-25T02:56:30;99435.75;;;9.34;100.00
12349;BME280;5974;42.710;27.258;2023-04-25T02:58:57;99447.72;;;9.19;100.00
12349;BME280;5974;42.710;27.258;2023-04-25T03:01:24;99439.19;;;9.34;100.00
12349;BME280;5974;42.710;27.258;2023-04-25T03:03:50;99435.03;;;9.30;100.00
12349;BME280;5974;42.710;27.258;2023-04-25T03:06:19;99438.53;;;9.29;100.00
12349;BME280;5974;42.710;27.258;2023-04-25T03:08:46;99420.38;;;9.27;100.00
12349;BME280;5974;42.710;27.258;2023-04-25T03:11:12;99422.50;;;8.62;100.00
12349;BME280;5974;42.710;27.258;2023-04-25T03:13:39;99436.22;;;8.25;100.00
12349;BME280;5974;42.710;27.258;2023-04-25T03:16:06;99429.72;;;8.76;100.00
12349;BME280;5974;42.710;27.258;2023-04-25T03:18:33;99423.47;;;8.80;100.00
12349;BME280;5974;42.710;27.258;2023-04-25T03:21:00;99405.63;;;8.10;100.00
12349;BME280;5974;42.710;27.258;2023-04-25T03:23:28;99431.06;;;8.03;100.00
12349;BME280;5974;42.710;27.258;2023-04-25T03:25:55;99438.72;;;8.06;100.00
12349;BME280;5974;42.710;27.258;2023-04-25T03:28:22;99444.34;;;7.76;100.00
12349;BME280;5974;42.710;27.258;2023-04-25T03:30:49;99457.22;;;8.00;100.00
12349;BME280;5974;42.710;27.258;2023-04-25T03:33:16;99457.53;;;7.71;100.00
12349;BME280;5974;42.710;27.258;2023-04-25T03:35:43;99463.47;;;8.38;100.00
12349;BME280;5974;42.710;27.258;2023-04-25T03:38:09;99457.47;;;8.77;100.00
12349;BME280;5974;42.710;27.258;2023-04-25T03:40:38;99451.59;;;8.92;100.00
12349;BME280;5974;42.710;27.258;2023-04-25T03:43:04;99447.44;;;9.06;100.00
12349;BME280;5974;42.710;27.258;2023-04-25T03:45:31;99439.06;;;9.18;100.00
12349;BME280;5974;42.710;27.258;2023-04-25T03:47:58;99430.34;;;9.19;100.00
12349;BME280;5974;42.710;27.258;2023-04-25T03:50:25;99430.09;;;9.24;100.00
12349;BME280;5974;42.710;27.258;2023-04-25T03:52:52;99431.38;;;9.34;100.00
12349;BME280;5974;42.710;27.258;2023-04-25T03:55:19;99419.50;;;9.46;100.00
12349;BME280;5974;42.710;27.258;2023-04-25T03:57:47;99427.22;;;9.66;100.00
12349;BME280;5974;42.710;27.258;2023-04-25T04:00:14;99428.84;;;9.87;100.00
12349;BME280;5974;42.710;27.258;2023-04-25T04:02:41;99417.66;;;9.48;100.00
12349;BME280;5974;42.710;27.258;2023-04-25T04:05:09;99420.09;;;9.69;100.00
12349;BME280;5974;42.710;27.258;2023-04-25T04:07:35;99422.06;;;10.00;100.00
12349;BME280;5974;42.710;27.258;2023-04-25T04:10:06;99422.63;;;10.41;100.00
12349;BME280;5974;42.710;27.258;2023-04-25T04:12:33;99418.81;;;10.14;100.00
12349;BME280;5974;42.710;27.258;2023-04-25T04:15:01;99418.38;;;10.73;100.00
12349;BME280;5974;42.710;27.258;2023-04-25T04:17:29;99405.38;;;10.71;100.00
12349;BME280;5974;42.710;27.258;2023-04-25T04:19:56;99417.94;;;11.13;100.00
12349;BME280;5974;42.710;27.258;2023-04-25T04:22:23;99404.97;;;12.04;100.00
12349;BME280;5974;42.710;27.258;2023-04-25T04:24:50;99390.13;;;13.46;100.00
12349;BME280;5974;42.710;27.258;2023-04-25T04:27:17;99379.91;;;14.72;100.00
12349;BME280;5974;42.710;27.258;2023-04-25T04:29:45;99374.13;;;15.65;100.00
12349;BME280;5974;42.710;27.258;2023-04-25T04:32:14;99360.69;;;16.72;100.00
12349;BME280;5974;42.710;27.258;2023-04-25T04:34:41;99356.94;;;17.73;100.00
12349;BME280;5974;42.710;27.258;2023-04-25T04:37:08;99360.53;;;17.72;100.00
12349;BME280;5974;42.710;27.258;2023-04-25T04:39:35;99346.19;;;20.44;90.61
12349;BME280;5974;42.710;27.258;2023-04-25T04:42:02;99352.88;;;21.32;78.37
12349;BME280;5974;42.710;27.258;2023-04-25T04:44:30;99351.66;;;20.80;76.17
12349;BME280;5974;42.710;27.258;2023-04-25T04:46:59;99353.91;;;20.84;74.08
12349;BME280;5974;42.710;27.258;2023-04-25T04:49:28;99351.25;;;21.21;73.45
12349;BME280;5974;42.710;27.258;2023-04-25T04:51:55;99349.56;;;23.29;66.16
12349;BME280;5974;42.710;27.258;2023-04-25T04:54:22;99347.22;;;24.49;61.22
12349;BME280;5974;42.710;27.258;2023-04-25T04:56:49;99353.25;;;24.51;58.70
12349;BME280;5974;42.710;27.258;2023-04-25T04:59:16;99341.88;;;24.49;57.58
12349;BME280;5974;42.710;27.258;2023-04-25T05:01:43;99350.06;;;25.57;55.58
12349;BME280;5974;42.710;27.258;2023-04-25T05:04:11;99354.00;;;26.37;53.27
12349;BME280;5974;42.710;27.258;2023-04-25T05:06:39;99349.38;;;25.86;52.85
12349;BME280;5974;42.710;27.258;2023-04-25T05:09:06;99351.88;;;26.33;52.06
12349;BME280;5974;42.710;27.258;2023-04-25T05:11:33;99342.38;;;24.52;54.81
12349;BME280;5974;42.710;27.258;2023-04-25T05:14:00;99337.78;;;25.32;54.70
12349;BME280;5974;42.710;27.258;2023-04-25T05:16:27;99334.59;;;22.94;57.96
12349;BME280;5974;42.710;27.258;2023-04-25T05:18:53;99345.81;;;26.16;54.19
12349;BME280;5974;42.710;27.258;2023-04-25T05:21:20;99338.56;;;25.49;53.20
12349;BME280;5974;42.710;27.258;2023-04-25T05:23:49;99337.00;;;24.68;54.28
12349;BME280;5974;42.710;27.258;2023-04-25T05:26:16;99334.19;;;23.73;55.47
12349;BME280;5974;42.710;27.258;2023-04-25T05:28:42;99331.16;;;23.60;56.47
12349;BME280;5974;42.710;27.258;2023-04-25T05:31:10;99335.25;;;24.20;55.47
12349;BME280;5974;42.710;27.258;2023-04-25T05:33:37;99332.66;;;25.84;52.93
12349;BME280;5974;42.710;27.258;2023-04-25T05:36:04;99324.41;;;25.63;51.79
12349;BME280;5974;42.710;27.258;2023-04-25T05:38:31;99324.66;;;25.14;52.43
12349;BME280;5974;42.710;27.258;2023-04-25T05:41:00;99322.97;;;25.98;51.81
12349;BME280;5974;42.710;27.258;2023-04-25T05:43:27;99319.09;;;24.85;51.16
12349;BME280;5974;42.710;27.258;2023-04-25T05:45:53;99316.78;;;24.66;52.93
12349;BME280;5974;42.710;27.258;2023-04-25T05:48:20;99323.72;;;24.20;52.53
12349;BME280;5974;42.710;27.258;2023-04-25T05:50:47;99309.88;;;22.84;55.40
12349;BME280;5974;42.710;27.258;2023-04-25T05:53:14;99327.44;;;24.74;54.51
12349;BME280;5974;42.710;27.258;2023-04-25T05:55:41;99316.72;;;25.29;52.73
12349;BME280;5974;42.710;27.258;2023-04-25T05:58:09;99311.63;;;26.85;50.15
12349;BME280;5974;42.710;27.258;2023-04-25T06:00:36;99309.53;;;25.29;50.67
12349;BME280;5974;42.710;27.258;2023-04-25T06:03:03;99307.94;;;24.65;52.02
12349;BME280;5974;42.710;27.258;2023-04-25T06:05:32;99305.09;;;26.50;50.88
12349;BME280;5974;42.710;27.258;2023-04-25T06:07:59;99308.88;;;25.81;49.93
12349;BME280;5974;42.710;27.258;2023-04-25T06:10:26;99300.06;;;24.72;51.52
12349;BME280;5974;42.710;27.258;2023-04-25T06:12:53;99312.03;;;22.89;55.27
12349;BME280;5974;42.710;27.258;2023-04-25T06:15:22;99324.78;;;22.18;58.61
12349;BME280;5974;42.710;27.258;2023-04-25T06:17:49;99317.34;;;23.22;57.06
12349;BME280;5974;42.710;27.258;2023-04-25T06:20:16;99307.16;;;23.68;55.56
12349;BME280;5974;42.710;27.258;2023-04-25T06:22:43;99306.53;;;24.77;53.71
12349;BME280;5974;42.710;27.258;2023-04-25T06:25:10;99310.81;;;24.48;54.63
12349;BME280;5974;42.710;27.258;2023-04-25T06:27:37;99304.66;;;24.07;56.27
12349;BME280;5974;42.710;27.258;2023-04-25T06:30:04;99334.19;;;23.65;56.02
12349;BME280;5974;42.710;27.258;2023-04-25T06:32:33;99306.50;;;24.22;55.00
12349;BME280;5974;42.710;27.258;2023-04-25T06:34:59;99295.66;;;24.08;55.54
12349;BME280;5974;42.710;27.258;2023-04-25T06:37:26;99297.81;;;24.04;55.29
12349;BME280;5974;42.710;27.258;2023-04-25T06:39:53;99298.31;;;23.75;56.45
12349;BME280;5974;42.710;27.258;2023-04-25T06:44:46;99295.97;;;21.95;59.29
12349;BME280;5974;42.710;27.258;2023-04-25T06:47:13;99298.81;;;20.77;64.22
12349;BME280;5974;42.710;27.258;2023-04-25T06:49:42;99295.13;;;19.66;67.89
12349;BME280;5974;42.710;27.258;2023-04-25T06:52:08;99299.03;;;19.42;69.75
12349;BME280;5974;42.710;27.258;2023-04-25T06:54:36;99287.69;;;18.21;75.49
12349;BME280;5974;42.710;27.258;2023-04-25T06:57:02;99297.16;;;18.03;80.55
12349;BME280;5974;42.710;27.258;2023-04-25T06:59:29;99297.19;;;17.39;83.82
12349;BME280;5974;42.710;27.258;2023-04-25T07:01:56;99307.41;;;17.75;87.70
12349;BME280;5974;42.710;27.258;2023-04-25T07:04:23;99305.50;;;17.34;89.16
12349;BME280;5974;42.710;27.258;2023-04-25T07:06:51;99308.69;;;17.38;93.76
12349;BME280;5974;42.710;27.258;2023-04-25T07:09:18;99297.09;;;17.29;97.24
12349;BME280;5974;42.710;27.258;2023-04-25T07:11:45;99307.00;;;17.48;96.16
12349;BME280;5974;42.710;27.258;2023-04-25T07:14:12;99309.75;;;16.93;99.66
12349;BME280;5974;42.710;27.258;2023-04-25T07:16:39;99298.88;;;16.64;100.00
12349;BME280;5974;42.710;27.258;2023-04-25T07:19:06;99306.19;;;16.94;100.00
12349;BME280;5974;42.710;27.258;2023-04-25T07:21:33;99305.19;;;17.06;100.00
12349;BME280;5974;42.710;27.258;2023-04-25T07:24:03;99303.34;;;17.28;100.00
12349;BME280;5974;42.710;27.258;2023-04-25T07:26:30;99310.88;;;17.33;100.00
12349;BME280;5974;42.710;27.258;2023-04-25T07:28:57;99311.03;;;17.20;100.00
12349;BME280;5974;42.710;27.258;2023-04-25T07:31:24;99315.78;;;16.72;100.00
12349;BME280;5974;42.710;27.258;2023-04-25T07:33:51;99311.94;;;16.65;100.00
12349;BME280;5974;42.710;27.258;2023-04-25T07:36:18;99313.84;;;16.97;100.00
12349;BME280;5974;42.710;27.258;2023-04-25T07:38:45;99308.78;;;17.16;100.00
12349;BME280;5974;42.710;27.258;2023-04-25T07:41:13;99311.66;;;17.02;100.00
12349;BME280;5974;42.710;27.258;2023-04-25T07:43:40;99310.78;;;17.23;100.00
12349;BME280;5974;42.710;27.258;2023-04-25T07:46:07;99305.44;;;17.46;100.00
12349;BME280;5974;42.710;27.258;2023-04-25T07:48:33;99306.44;;;17.76;100.00
12349;BME280;5974;42.710;27.258;2023-04-25T07:51:00;99298.34;;;18.40;100.00
12349;BME280;5974;42.710;27.258;2023-04-25T07:53:29;99289.31;;;18.63;99.49
12349;BME280;5974;42.710;27.258;2023-04-25T07:55:57;99287.97;;;19.28;96.29
12349;BME280;5974;42.710;27.258;2023-04-25T07:58:26;99280.31;;;19.82;93.18
12349;BME280;5974;42.710;27.258;2023-04-25T08:00:52;99280.88;;;19.76;89.18
12349;BME280;5974;42.710;27.258;2023-04-25T08:03:19;99281.59;;;21.08;87.35
12349;BME280;5974;42.710;27.258;2023-04-25T08:05:46;99291.94;;;21.56;82.85
12349;BME280;5974;42.710;27.258;2023-04-25T08:08:13;99300.97;;;21.45;81.11
12349;BME280;5974;42.710;27.258;2023-04-25T08:10:40;99295.41;;;21.39;81.41
12349;BME280;5974;42.710;27.258;2023-04-25T08:13:07;99288.19;;;21.67;81.08
12349;BME280;5974;42.710;27.258;2023-04-25T08:15:35;99299.22;;;21.54;78.23
12349;BME280;5974;42.710;27.258;2023-04-25T08:18:02;99301.00;;;21.98;77.99
12349;BME280;5974;42.710;27.258;2023-04-25T08:20:29;99297.38;;;21.19;78.21
12349;BME280;5974;42.710;27.258;2023-04-25T08:22:56;99297.44;;;20.36;77.92
12349;BME280;5974;42.710;27.258;2023-04-25T08:25:23;99299.38;;;21.35;80.37
12349;BME280;5974;42.710;27.258;2023-04-25T08:27:50;99261.81;;;20.93;78.02
12349;BME280;5974;42.710;27.258;2023-04-25T08:30:17;99291.88;;;20.93;78.42
12349;BME280;5974;42.710;27.258;2023-04-25T08:32:45;99288.06;;;21.68;78.21
12349;BME280;5974;42.710;27.258;2023-04-25T08:35:12;99279.97;;;22.39;76.79
12349;BME280;5974;42.710;27.258;2023-04-25T08:37:38;99250.72;;;21.95;73.52
12349;BME280;5974;42.710;27.258;2023-04-25T08:40:06;99272.03;;;22.55;74.53
12349;BME280;5974;42.710;27.258;2023-04-25T08:42:37;99289.03;;;21.85;71.55
12349;BME280;5974;42.710;27.258;2023-04-25T08:45:05;99271.22;;;21.85;74.18
12349;BME280;5974;42.710;27.258;2023-04-25T08:47:33;99277.03;;;21.63;73.40
12349;BME280;5974;42.710;27.258;2023-04-25T08:50:04;99267.25;;;22.07;72.99
12349;BME280;5974;42.710;27.258;2023-04-25T08:52:36;99273.16;;;22.19;69.81
12349;BME280;5974;42.710;27.258;2023-04-25T08:55:05;99268.56;;;22.29;70.55
12349;BME280;5974;42.710;27.258;2023-04-25T08:57:34;99265.19;;;22.78;66.93
12349;BME280;5974;42.710;27.258;2023-04-25T09:00:02;99268.53;;;23.22;68.20
12349;BME280;5974;42.710;27.258;2023-04-25T09:02:30;99268.84;;;23.19;67.72
12349;BME280;5974;42.710;27.258;2023-04-25T09:04:58;99265.75;;;23.72;66.58
12349;BME280;5974;42.710;27.258;2023-04-25T09:07:27;99263.72;;;23.42;66.27
12349;BME280;5974;42.710;27.258;2023-04-25T09:09:54;99256.63;;;23.00;64.17
12349;BME280;5974;42.710;27.258;2023-04-25T09:12:21;99255.59;;;23.01;66.74
12349;BME280;5974;42.710;27.258;2023-04-25T09:15:02;99255.69;;;23.34;66.56
12349;BME280;5974;42.710;27.258;2023-04-25T09:17:29;99244.06;;;23.43;65.35
12349;BME280;5974;42.710;27.258;2023-04-25T09:20:05;99243.25;;;23.58;65.62
12349;BME280;5974;42.710;27.258;2023-04-25T09:22:34;99264.94;;;23.55;65.19
12349;BME280;5974;42.710;27.258;2023-04-25T09:25:03;99246.50;;;24.41;64.29
12349;BME280;5974;42.710;27.258;2023-04-25T09:27:30;99244.72;;;23.45;61.75
12349;BME280;5974;42.710;27.258;2023-04-25T09:29:58;99242.22;;;23.51;63.97
12349;BME280;5974;42.710;27.258;2023-04-25T09:32:26;99235.38;;;24.68;63.73
12349;BME280;5974;42.710;27.258;2023-04-25T09:34:54;99228.00;;;24.78;60.57
12349;BME280;5974;42.710;27.258;2023-04-25T09:37:22;99232.56;;;23.83;60.77
12349;BME280;5974;42.710;27.258;2023-04-25T09:39:55;99228.25;;;24.53;63.47
12349;BME280;5974;42.710;27.258;2023-04-25T09:42:22;99225.50;;;24.22;63.26
12349;BME280;5974;42.710;27.258;2023-04-25T09:44:51;99227.63;;;24.43;63.90
12349;BME280;5974;42.710;27.258;2023-04-25T09:47:18;99214.38;;;23.86;65.05
12349;BME280;5974;42.710;27.258;2023-04-25T09:49:48;99218.38;;;23.74;64.98
12349;BME280;5974;42.710;27.258;2023-04-25T09:52:16;99216.72;;;23.89;67.22
12349;BME280;5974;42.710;27.258;2023-04-25T09:54:44;99202.19;;;23.75;62.33
12349;BME280;5974;42.710;27.258;2023-04-25T09:57:13;99207.50;;;24.16;64.03
12349;BME280;5974;42.710;27.258;2023-04-25T09:59:44;99196.69;;;23.61;63.92
12349;BME280;5974;42.710;27.258;2023-04-25T10:02:12;99198.03;;;23.73;63.03
12349;BME280;5974;42.710;27.258;2023-04-25T10:04:41;99191.66;;;23.98;64.70
12349;BME280;5974;42.710;27.258;2023-04-25T10:07:08;99180.34;;;23.80;61.72
12349;BME280;5974;42.710;27.258;2023-04-25T10:09:37;99174.94;;;24.04;60.82
12349;BME280;5974;42.710;27.258;2023-04-25T10:12:05;99171.47;;;23.15;61.73
12349;BME280;5974;42.710;27.258;2023-04-25T10:14:34;99168.72;;;22.83;62.56
12349;BME280;5974;42.710;27.258;2023-04-25T10:17:01;99171.66;;;23.54;62.92
12349;BME280;5974;42.710;27.258;2023-04-25T10:19:29;99169.53;;;23.49;62.71
12349;BME280;5974;42.710;27.258;2023-04-25T10:22:03;99163.97;;;23.18;63.43
12349;BME280;5974;42.710;27.258;2023-04-25T10:24:31;99156.28;;;22.91;63.13
12349;BME280;5974;42.710;27.258;2023-04-25T10:26:58;99161.00;;;23.62;62.97
12349;BME280;5974;42.710;27.258;2023-04-25T10:29:26;99155.63;;;23.86;64.95
12349;BME280;5974;42.710;27.258;2023-04-25T10:31:54;99157.50;;;23.61;63.20
12349;BME280;5974;42.710;27.258;2023-04-25T10:34:24;99151.22;;;24.09;62.22
12349;BME280;5974;42.710;27.258;2023-04-25T10:37:03;99152.00;;;24.34;62.61
12349;BME280;5974;42.710;27.258;2023-04-25T10:39:32;99141.75;;;24.46;60.97
12349;BME280;5974;42.710;27.258;2023-04-25T10:42:01;99131.06;;;24.46;61.92
12349;BME280;5974;42.710;27.258;2023-04-25T10:44:29;99144.97;;;23.54;60.31
12349;BME280;5974;42.710;27.258;2023-04-25T10:46:58;99139.94;;;23.75;64.03
12349;BME280;5974;42.710;27.258;2023-04-25T10:49:30;99136.16;;;23.45;63.41
12349;BME280;5974;42.710;27.258;2023-04-25T10:52:17;99124.03;;;24.14;62.78
12349;BME280;5974;42.710;27.258;2023-04-25T10:54:47;99134.81;;;24.28;60.90
12349;BME280;5974;42.710;27.258;2023-04-25T10:57:29;99134.06;;;24.51;61.64
12349;BME280;5974;42.710;27.258;2023-04-25T10:59:59;99129.88;;;24.01;61.43
12349;BME280;5974;42.710;27.258;2023-04-25T11:02:28;99127.34;;;24.24;61.18
12349;BME280;5974;42.710;27.258;2023-04-25T11:04:56;99131.31;;;24.59;61.80
12349;BME280;5974;42.710;27.258;2023-04-25T11:07:29;99124.88;;;25.07;60.61
12349;BME280;5974;42.710;27.258;2023-04-25T11:10:01;99119.19;;;24.79;59.67
12349;BME280;5974;42.710;27.258;2023-04-25T11:12:29;99112.34;;;24.85;58.61
12349;BME280;5974;42.710;27.258;2023-04-25T11:15:01;99108.06;;;24.37;59.44
12349;BME280;5974;42.710;27.258;2023-04-25T11:17:30;99099.44;;;24.18;60.05
12349;BME280;5974;42.710;27.258;2023-04-25T11:19:57;99108.03;;;24.45;59.59
12349;BME280;5974;42.710;27.258;2023-04-25T11:22:23;99103.84;;;24.11;61.17
12349;BME280;5974;42.710;27.258;2023-04-25T11:24:50;99093.25;;;23.71;60.90
12349;BME280;5974;42.710;27.258;2023-04-25T11:27:17;99096.09;;;23.69;61.08
12349;BME280;5974;42.710;27.258;2023-04-25T11:29:44;99092.97;;;23.42;63.08
12349;BME280;5974;42.710;27.258;2023-04-25T11:32:14;99096.44;;;23.26;62.60
12349;BME280;5974;42.710;27.258;2023-04-25T11:34:43;99099.56;;;23.78;63.01
12349;BME280;5974;42.710;27.258;2023-04-25T11:37:11;99095.81;;;24.50;61.28
12349;BME280;5974;42.710;27.258;2023-04-25T11:39:42;99101.59;;;23.60;60.98
12349;BME280;5974;42.710;27.258;2023-04-25T11:42:09;99083.44;;;22.75;62.26
12349;BME280;5974;42.710;27.258;2023-04-25T11:44:37;99077.63;;;22.79;62.65
12349;BME280;5974;42.710;27.258;2023-04-25T11:47:04;99080.78;;;23.55;62.54
12349;BME280;5974;42.710;27.258;2023-04-25T11:49:31;99080.28;;;23.03;62.82
12349;BME280;5974;42.710;27.258;2023-04-25T11:52:00;99077.59;;;22.71;65.56
12349;BME280;5974;42.710;27.258;2023-04-25T11:54:26;99072.34;;;22.37;68.29
12349;BME280;5974;42.710;27.258;2023-04-25T11:56:53;99054.25;;;21.73;70.22
12349;BME280;5974;42.710;27.258;2023-04-25T11:59:24;99052.38;;;21.32;74.84
12349;BME280;5974;42.710;27.258;2023-04-25T12:01:51;99053.09;;;21.76;77.56
12349;BME280;5974;42.710;27.258;2023-04-25T12:04:20;99050.94;;;21.45;79.16
12349;BME280;5974;42.710;27.258;2023-04-25T12:06:49;99047.94;;;22.08;79.40
12349;BME280;5974;42.710;27.258;2023-04-25T12:09:19;99037.91;;;21.94;78.21
12349;BME280;5974;42.710;27.258;2023-04-25T12:11:47;99042.97;;;21.79;76.62
12349;BME280;5974;42.710;27.258;2023-04-25T12:14:21;99039.44;;;21.71;78.24
12349;BME280;5974;42.710;27.258;2023-04-25T12:16:49;99034.97;;;22.05;77.98
12349;BME280;5974;42.710;27.258;2023-04-25T12:19:18;99019.25;;;21.94;77.51
12349;BME280;5974;42.710;27.258;2023-04-25T12:21:46;99027.00;;;22.21;76.58
12349;BME280;5974;42.710;27.258;2023-04-25T12:24:14;99027.94;;;21.96;77.79
12349;BME280;5974;42.710;27.258;2023-04-25T12:26:51;99021.22;;;21.50;78.61
12349;BME280;5974;42.710;27.258;2023-04-25T12:29:20;99008.78;;;21.25;77.63
12349;BME280;5974;42.710;27.258;2023-04-25T12:31:47;99009.97;;;21.30;79.02
12349;BME280;5974;42.710;27.258;2023-04-25T12:34:14;99002.13;;;21.03;80.18
12349;BME280;5974;42.710;27.258;2023-04-25T12:36:41;98971.97;;;21.46;77.08
12349;BME280;5974;42.710;27.258;2023-04-25T12:39:08;99013.69;;;21.71;73.15
12349;BME280;5974;42.710;27.258;2023-04-25T12:41:35;99010.88;;;22.23;76.53
12349;BME280;5974;42.710;27.258;2023-04-25T12:44:04;99009.53;;;22.10;72.98
12349;BME280;5974;42.710;27.258;2023-04-25T12:46:31;99017.88;;;22.24;72.98
12349;BME280;5974;42.710;27.258;2023-04-25T12:48:58;99013.59;;;21.55;75.99
12349;BME280;5974;42.710;27.258;2023-04-25T12:51:25;99019.38;;;21.84;77.42
12349;BME280;5974;42.710;27.258;2023-04-25T12:53:53;99022.34;;;21.47;77.83
12349;BME280;5974;42.710;27.258;2023-04-25T12:56:20;99031.31;;;20.77;80.29
12349;BME280;5974;42.710;27.258;2023-04-25T12:58:46;99028.09;;;20.74;82.03
12349;BME280;5974;42.710;27.258;2023-04-25T13:01:15;99026.06;;;20.50;84.41
12349;BME280;5974;42.710;27.258;2023-04-25T13:03:42;99038.22;;;19.80;89.17